createdAt,value
2022-12-08T00:01:32.457Z,5.53
2022-12-08T00:04:01.264Z,4.07
2022-12-08T00:06:50.549Z,2.88
2022-12-08T00:09:23.763Z,3.80
2022-12-08T00:11:57.009Z,2.95
2022-12-08T00:14:29.012Z,4.25
2022-12-08T00:16:57.515Z,9.25
2022-12-08T00:19:26.157Z,3.75
2022-12-08T00:21:56.022Z,1.67
2022-12-08T00:24:26.593Z,5.30
2022-12-08T00:26:54.461Z,3.03
2022-12-08T00:29:22.422Z,6.57
2022-12-08T00:31:50.330Z,3.97
2022-12-08T00:34:18.409Z,2.97
2022-12-08T00:36:46.429Z,6.05
2022-12-08T00:39:16.973Z,3.00
2022-12-08T00:42:02.562Z,8.27
2022-12-08T00:44:33.575Z,3.40
2022-12-08T00:47:01.465Z,2.67
2022-12-08T00:49:29.318Z,4.40
2022-12-08T00:51:57.255Z,1.58
2022-12-08T00:54:26.567Z,4.20
2022-12-08T00:56:54.551Z,5.25
2022-12-08T00:59:22.457Z,3.67
2022-12-08T01:01:50.397Z,4.07
2022-12-08T01:04:19.985Z,2.80
2022-12-08T01:06:48.497Z,4.18
2022-12-08T01:09:18.569Z,2.78
2022-12-08T01:11:48.041Z,3.17
2022-12-08T01:16:44.926Z,2.28
2022-12-08T01:19:14.832Z,2.78
2022-12-08T01:21:43.231Z,4.60
2022-12-08T01:24:12.429Z,3.38
2022-12-08T01:26:40.579Z,2.78
2022-12-08T01:29:10.195Z,6.30
2022-12-08T01:34:05.884Z,1.98
2022-12-08T01:36:37.035Z,6.07
2022-12-08T01:39:07.283Z,4.28
2022-12-08T01:41:37.999Z,5.70
2022-12-08T01:44:44.214Z,3.22
2022-12-08T01:47:13.558Z,3.17
2022-12-08T01:49:41.537Z,7.75
2022-12-08T01:52:15.305Z,3.75
2022-12-08T01:54:47.598Z,3.20
2022-12-08T01:57:19.596Z,4.07
2022-12-08T01:59:51.849Z,4.55
2022-12-08T02:02:21.404Z,2.80
2022-12-08T02:07:18.988Z,8.35
2022-12-08T02:09:47.708Z,4.88
2022-12-08T02:12:16.033Z,2.83
2022-12-08T02:14:44.009Z,5.05
2022-12-08T02:17:28.342Z,3.42
2022-12-08T02:20:18.214Z,5.32
2022-12-08T02:22:55.811Z,4.60
2022-12-08T02:25:34.593Z,12.38
2022-12-08T02:28:23.213Z,2.10
2022-12-08T02:30:59.060Z,1.73
2022-12-08T02:33:54.408Z,2.53
2022-12-08T02:36:26.041Z,1.60
2022-12-08T02:39:01.969Z,3.17
2022-12-08T02:41:39.486Z,6.03
2022-12-08T02:44:13.577Z,2.95
2022-12-08T02:46:46.470Z,3.67
2022-12-08T02:49:16.753Z,1.63
2022-12-08T02:51:44.746Z,1.73
2022-12-08T02:54:13.079Z,5.20
2022-12-08T02:56:55.583Z,3.15
2022-12-08T02:59:42.772Z,5.55
2022-12-08T03:02:29.717Z,7.90
2022-12-08T03:05:07.883Z,1.92
2022-12-08T03:07:42.163Z,3.13
2022-12-08T03:10:13.596Z,5.47
2022-12-08T03:12:49.551Z,2.80
2022-12-08T03:15:21.432Z,0.90
2022-12-08T03:17:53.809Z,2.13
2022-12-08T03:20:26.195Z,2.63
2022-12-08T03:22:56.918Z,3.38
2022-12-08T03:25:27.181Z,1.92
2022-12-08T03:27:55.514Z,2.22
2022-12-08T03:30:23.497Z,2.60
2022-12-08T03:32:56.411Z,2.13
2022-12-08T03:35:28.349Z,1.85
2022-12-08T03:38:04.090Z,1.80
2022-12-08T03:40:32.237Z,2.90
2022-12-08T03:43:00.238Z,2.38
2022-12-08T03:45:28.278Z,2.13
2022-12-08T03:47:56.453Z,2.70
2022-12-08T03:50:25.894Z,2.28
2022-12-08T03:52:53.709Z,2.97
2022-12-08T03:55:22.706Z,1.63
2022-12-08T03:57:50.535Z,1.65
2022-12-08T04:00:19.065Z,5.95
2022-12-08T04:02:46.947Z,5.55
2022-12-08T04:05:14.817Z,6.93
2022-12-08T04:07:44.093Z,1.90
2022-12-08T04:10:12.387Z,3.35
2022-12-08T04:12:40.210Z,2.25
2022-12-08T04:15:09.237Z,1.60
2022-12-08T04:17:37.049Z,5.45
2022-12-08T04:20:05.515Z,7.55
2022-12-08T04:22:33.474Z,1.53
2022-12-08T04:25:02.965Z,2.10
2022-12-08T04:27:30.789Z,1.92
2022-12-08T04:29:58.598Z,3.95
2022-12-08T04:32:26.490Z,3.38
2022-12-08T04:34:54.304Z,2.33
2022-12-08T04:37:22.141Z,3.50
2022-12-08T04:39:49.960Z,2.60
2022-12-08T04:42:19.247Z,2.92
2022-12-08T04:44:47.049Z,1.90
2022-12-08T04:47:14.963Z,2.25
2022-12-08T04:49:42.846Z,2.90
2022-12-08T04:52:10.753Z,5.05
2022-12-08T04:54:38.624Z,1.85
2022-12-08T04:57:06.711Z,1.65
2022-12-08T04:59:35.928Z,3.70
2022-12-08T05:02:04.060Z,1.85
2022-12-08T05:04:31.990Z,1.73
2022-12-08T05:06:59.897Z,3.72
2022-12-08T05:09:28.190Z,2.15
2022-12-08T05:11:56.037Z,4.47
2022-12-08T05:14:23.918Z,2.60
2022-12-08T05:16:53.236Z,1.45
2022-12-08T05:19:21.106Z,2.97
2022-12-08T05:21:49.085Z,2.90
2022-12-08T05:24:16.887Z,3.25
2022-12-08T05:26:44.788Z,2.13
2022-12-08T05:29:12.621Z,2.45
2022-12-08T05:31:40.568Z,2.67
2022-12-08T05:34:10.009Z,1.60
2022-12-08T05:36:37.805Z,3.50
2022-12-08T05:39:05.822Z,3.35
2022-12-08T05:41:33.696Z,1.23
2022-12-08T05:44:01.551Z,2.55
2022-12-08T05:46:29.789Z,4.10
2022-12-08T05:48:57.750Z,3.53
2022-12-08T05:51:26.995Z,3.50
2022-12-08T05:53:55.392Z,1.40
2022-12-08T05:56:23.550Z,2.55
2022-12-08T05:58:51.666Z,1.35
2022-12-08T06:01:21.800Z,1.55
2022-12-08T06:03:49.822Z,4.45
2022-12-08T06:06:17.693Z,2.72
2022-12-08T06:08:46.918Z,4.45
2022-12-08T06:11:20.937Z,2.90
2022-12-08T06:13:49.180Z,5.13
2022-12-08T06:16:19.092Z,5.63
2022-12-08T06:18:47.769Z,3.95
2022-12-08T06:21:17.712Z,8.00
2022-12-08T06:23:50.062Z,3.72
2022-12-08T06:26:19.463Z,6.97
2022-12-08T06:28:47.364Z,4.63
2022-12-08T06:31:18.014Z,4.03
2022-12-08T06:33:46.587Z,5.97
2022-12-08T06:36:15.823Z,2.50
2022-12-08T06:38:44.253Z,2.85
2022-12-08T06:41:14.505Z,2.97
2022-12-08T06:43:42.437Z,1.52
2022-12-08T06:46:13.758Z,2.00
2022-12-08T06:48:41.732Z,3.42
2022-12-08T06:51:11.298Z,1.67
2022-12-08T06:56:08.301Z,3.67
2022-12-08T06:58:37.719Z,7.63
2022-12-08T07:01:07.393Z,8.57
2022-12-08T07:03:35.655Z,3.00
2022-12-08T07:06:04.511Z,6.95
2022-12-08T07:08:33.150Z,2.05
2022-12-08T07:11:01.119Z,7.07
2022-12-08T07:13:28.940Z,3.53
2022-12-08T07:15:58.128Z,3.42
2022-12-08T07:18:26.009Z,5.80
2022-12-08T07:20:53.879Z,7.43
2022-12-08T07:23:21.746Z,3.10
2022-12-08T07:25:49.576Z,9.45
2022-12-08T07:28:17.581Z,4.47
2022-12-08T07:30:45.496Z,4.07
2022-12-08T07:33:14.717Z,7.80
2022-12-08T07:35:47.762Z,4.55
2022-12-08T07:38:16.896Z,7.55
2022-12-08T07:40:44.745Z,6.30
2022-12-08T07:43:12.551Z,4.38
2022-12-08T07:45:41.737Z,4.60
2022-12-08T07:48:09.738Z,3.72
2022-12-08T07:50:39.130Z,3.90
2022-12-08T07:53:07.434Z,2.75
2022-12-08T07:55:35.440Z,6.82
2022-12-08T07:58:03.254Z,3.05
2022-12-08T08:00:31.143Z,3.53
2022-12-08T08:02:59.112Z,9.32
2022-12-08T08:05:27.117Z,5.07
2022-12-08T08:07:56.437Z,12.93
2022-12-08T08:10:24.314Z,5.53
2022-12-08T08:12:52.193Z,5.78
2022-12-08T08:15:21.342Z,7.43
2022-12-08T08:17:50.925Z,7.80
2022-12-08T08:20:19.752Z,4.90
2022-12-08T08:22:48.212Z,7.03
2022-12-08T08:25:18.474Z,8.38
2022-12-08T08:27:48.280Z,4.32
2022-12-08T08:30:20.768Z,4.28
2022-12-08T08:32:49.385Z,3.78
2022-12-08T08:35:17.667Z,4.28
2022-12-08T08:37:48.830Z,7.32
2022-12-08T08:40:18.875Z,8.30
2022-12-08T08:45:14.427Z,9.05
2022-12-08T08:47:42.331Z,6.63
2022-12-08T08:50:10.665Z,6.15
2022-12-08T08:52:38.666Z,4.40
2022-12-08T08:55:07.429Z,7.00
2022-12-08T08:57:36.714Z,10.25
2022-12-08T09:00:05.846Z,5.75
2022-12-08T09:02:33.891Z,8.50
2022-12-08T09:05:01.823Z,8.13
2022-12-08T09:07:29.910Z,5.78
2022-12-08T09:10:01.803Z,5.22
2022-12-08T09:12:30.683Z,4.25
2022-12-08T09:14:59.915Z,4.05
2022-12-08T09:17:27.780Z,4.43
2022-12-08T09:19:55.619Z,3.97
2022-12-08T09:22:23.878Z,5.75
2022-12-08T09:24:54.127Z,8.43
2022-12-08T09:27:21.986Z,5.75
2022-12-08T09:29:50.902Z,8.63
2022-12-08T09:32:20.105Z,4.32
2022-12-08T09:34:52.137Z,16.73
2022-12-08T09:37:20.410Z,5.00
2022-12-08T09:39:48.465Z,5.18
2022-12-08T09:42:29.431Z,8.23
2022-12-08T09:45:04.091Z,5.55
2022-12-08T09:47:38.405Z,7.75
2022-12-08T09:50:12.933Z,8.38
2022-12-08T09:52:44.924Z,9.73
2022-12-08T09:55:25.914Z,9.07
2022-12-08T09:58:04.254Z,10.00
2022-12-08T10:00:32.754Z,19.15
2022-12-08T10:03:02.032Z,10.20
2022-12-08T10:05:35.697Z,12.63
2022-12-08T10:08:13.360Z,5.40
2022-12-08T10:10:48.025Z,5.70
2022-12-08T10:13:23.005Z,5.55
2022-12-08T10:15:58.883Z,5.30
2022-12-08T10:18:31.411Z,6.55
2022-12-08T10:21:11.991Z,5.38
2022-12-08T10:23:41.800Z,5.95
2022-12-08T10:26:13.972Z,6.43
2022-12-08T10:28:45.090Z,8.85
2022-12-08T10:31:18.686Z,5.40
2022-12-08T10:33:50.485Z,7.88
2022-12-08T10:36:19.254Z,3.13
2022-12-08T10:38:47.821Z,4.97
2022-12-08T10:41:18.335Z,9.57
2022-12-08T10:43:50.249Z,3.33
2022-12-08T10:46:20.988Z,5.13
2022-12-08T10:48:52.894Z,7.53
2022-12-08T10:51:28.204Z,7.55
2022-12-08T10:53:58.392Z,4.05
2022-12-08T10:56:29.672Z,7.35
2022-12-08T10:59:21.626Z,3.33
2022-12-08T11:01:52.145Z,8.68
2022-12-08T11:04:23.656Z,13.48
2022-12-08T11:06:53.269Z,7.65
2022-12-08T11:09:32.092Z,6.97
2022-12-08T11:12:00.905Z,8.32
2022-12-08T11:14:30.595Z,9.48
2022-12-08T11:19:41.237Z,7.60
2022-12-08T11:22:23.298Z,14.20
2022-12-08T11:24:59.571Z,4.72
2022-12-08T11:27:28.231Z,3.58
2022-12-08T11:29:56.340Z,10.27
2022-12-08T11:32:24.217Z,5.50
2022-12-08T11:35:00.185Z,5.15
2022-12-08T11:37:35.344Z,7.05
2022-12-08T11:40:08.150Z,3.78
2022-12-08T11:42:45.569Z,6.65
2022-12-08T11:45:27.048Z,3.67
2022-12-08T11:48:04.639Z,4.45
2022-12-08T11:50:43.555Z,5.45
2022-12-08T11:53:19.866Z,3.55
2022-12-08T11:55:53.454Z,7.55
2022-12-08T11:58:26.172Z,7.57
2022-12-08T12:00:54.043Z,10.90
2022-12-08T12:03:30.588Z,3.30
2022-12-08T12:06:38.248Z,5.07
2022-12-08T12:09:14.801Z,12.02
2022-12-08T12:12:09.225Z,5.18
2022-12-08T12:15:07.660Z,6.32
2022-12-08T12:17:46.283Z,6.35
2022-12-08T12:20:20.661Z,8.80
2022-12-08T12:22:53.018Z,8.55
2022-12-08T12:25:23.833Z,6.65
2022-12-08T12:27:57.153Z,7.47
2022-12-08T12:30:27.698Z,7.97
2022-12-08T12:32:59.929Z,3.85
2022-12-08T12:35:34.546Z,5.03
2022-12-08T12:38:29.432Z,6.63
2022-12-08T12:41:03.151Z,5.60
2022-12-08T12:43:33.261Z,4.47
2022-12-08T12:46:49.948Z,6.13
2022-12-08T12:49:54.720Z,7.85
2022-12-08T12:52:46.682Z,6.13
2022-12-08T12:55:51.493Z,6.03
2022-12-08T12:58:40.868Z,12.48
2022-12-08T13:01:37.818Z,4.28
2022-12-08T13:04:08.566Z,6.75
2022-12-08T13:06:40.551Z,7.15
2022-12-08T13:09:19.823Z,4.82
2022-12-08T13:11:51.251Z,7.70
2022-12-08T13:14:31.306Z,4.43
2022-12-08T13:17:01.322Z,8.70
2022-12-08T13:19:33.161Z,8.63
2022-12-08T13:22:02.605Z,8.10
2022-12-08T13:24:35.088Z,10.00
2022-12-08T13:27:34.188Z,5.43
2022-12-08T13:30:42.728Z,10.55
2022-12-08T13:33:18.534Z,4.80
2022-12-08T13:35:54.968Z,4.13
2022-12-08T13:38:27.447Z,3.90
2022-12-08T13:40:58.204Z,2.08
2022-12-08T13:43:48.278Z,3.95
2022-12-08T13:56:37.497Z,4.70
2022-12-08T13:58:06.333Z,5.38
2022-12-08T14:00:34.326Z,4.72
2022-12-08T14:03:05.370Z,4.38
2022-12-08T14:06:10.901Z,4.85
2022-12-08T14:08:58.976Z,4.95
2022-12-08T14:11:34.549Z,4.82
2022-12-08T14:14:04.805Z,7.10
2022-12-08T14:16:42.867Z,6.32
2022-12-08T14:19:24.261Z,3.15
2022-12-08T14:21:58.964Z,4.05
2022-12-08T14:24:28.512Z,4.38
2022-12-08T14:27:01.041Z,3.08
2022-12-08T14:29:39.061Z,4.63
2022-12-08T14:32:19.498Z,5.13
2022-12-08T14:34:53.753Z,6.45
2022-12-08T14:37:22.848Z,5.50
2022-12-08T14:39:51.050Z,7.55
2022-12-08T14:42:24.564Z,7.13
2022-12-08T14:45:02.072Z,5.97
2022-12-08T14:47:31.692Z,4.72
2022-12-08T14:50:01.560Z,3.30
2022-12-08T14:52:30.078Z,4.65
2022-12-08T14:55:00.752Z,9.00
2022-12-08T14:57:36.393Z,8.40
2022-12-08T15:00:19.435Z,5.15
2022-12-08T15:02:50.077Z,9.10
2022-12-08T15:05:22.321Z,5.05
2022-12-08T15:07:51.957Z,4.93
2022-12-08T15:10:25.226Z,6.15
2022-12-08T15:13:02.205Z,6.45
2022-12-08T15:15:30.924Z,7.50
2022-12-08T15:18:13.705Z,8.37
2022-12-08T15:20:45.444Z,13.65
2022-12-08T15:23:21.572Z,6.47
2022-12-08T15:25:49.853Z,8.20
2022-12-08T15:28:19.808Z,4.40
2022-12-08T15:30:48.553Z,6.30
2022-12-08T15:33:16.390Z,8.45
2022-12-08T15:35:46.347Z,6.78
2022-12-08T15:38:21.721Z,8.27
2022-12-08T15:40:50.120Z,6.40
2022-12-08T15:43:17.968Z,5.97
2022-12-08T15:45:57.980Z,8.05
2022-12-08T15:48:28.921Z,7.40
2022-12-08T15:50:59.059Z,5.28
2022-12-08T15:53:27.230Z,6.25
2022-12-08T15:56:26.985Z,4.85
2022-12-08T15:58:54.841Z,10.25
2022-12-08T16:01:24.049Z,9.77
2022-12-08T16:07:20.111Z,5.00
2022-12-08T16:09:34.167Z,8.65
2022-12-08T16:12:19.500Z,6.15
2022-12-08T16:15:47.357Z,8.30
2022-12-08T16:17:36.611Z,13.88
2022-12-08T16:20:07.005Z,6.13
2022-12-08T16:22:56.781Z,5.63
2022-12-08T16:25:24.838Z,6.93
2022-12-08T16:28:17.534Z,7.67
2022-12-08T16:30:43.491Z,7.10
2022-12-08T16:33:13.112Z,13.23
2022-12-08T16:38:14.673Z,6.43
2022-12-08T16:40:59.358Z,6.80
2022-12-08T16:43:27.177Z,10.70
2022-12-08T16:45:55.156Z,9.90
2022-12-08T16:48:23.333Z,9.25
2022-12-08T16:50:51.505Z,9.65
2022-12-08T16:53:20.823Z,9.90
2022-12-08T16:55:49.407Z,11.68
2022-12-08T16:58:18.656Z,8.32
2022-12-08T17:00:46.686Z,8.68
2022-12-08T17:03:16.232Z,13.18
2022-12-08T17:05:44.294Z,10.93
2022-12-08T17:08:13.281Z,6.97
2022-12-08T17:10:43.286Z,6.00
2022-12-08T17:13:13.030Z,9.95
2022-12-08T17:15:41.519Z,8.82
2022-12-08T17:18:09.385Z,6.30
2022-12-08T17:20:37.207Z,6.85
2022-12-08T17:23:05.285Z,9.55
2022-12-08T17:25:33.425Z,9.10
2022-12-08T17:28:03.021Z,7.82
2022-12-08T17:30:31.333Z,8.60
2022-12-08T17:32:59.217Z,16.10
2022-12-08T17:35:27.069Z,10.65
2022-12-08T17:37:55.112Z,12.48
2022-12-08T17:40:27.994Z,9.27
2022-12-08T17:42:56.161Z,9.45
2022-12-08T17:45:26.102Z,8.45
2022-12-08T17:47:54.150Z,7.93
2022-12-08T17:50:22.052Z,16.25
2022-12-08T17:52:51.550Z,8.18
2022-12-08T17:55:19.389Z,15.57
2022-12-08T17:57:48.193Z,11.90
2022-12-08T18:00:16.894Z,10.02
2022-12-08T18:02:48.462Z,12.67
2022-12-08T18:05:16.421Z,9.52
2022-12-08T18:07:44.280Z,12.90
2022-12-08T18:10:12.344Z,9.68
2022-12-08T18:12:40.824Z,9.73
2022-12-08T18:15:11.270Z,8.75
2022-12-08T18:17:39.103Z,12.00
2022-12-08T18:20:10.354Z,12.43
2022-12-08T18:22:38.466Z,8.57
2022-12-08T18:25:07.766Z,13.73
2022-12-08T18:27:40.028Z,8.00
2022-12-08T18:30:18.104Z,7.75
2022-12-08T18:32:46.484Z,9.85
2022-12-08T18:35:15.793Z,11.77
2022-12-08T18:37:44.174Z,9.90
2022-12-08T18:40:13.171Z,11.05
2022-12-08T18:42:41.193Z,9.98
2022-12-08T18:45:10.043Z,11.55
2022-12-08T18:47:39.693Z,10.82
2022-12-08T18:52:38.195Z,5.82
2022-12-08T18:55:07.509Z,6.28
2022-12-08T19:00:04.885Z,6.80
2022-12-08T19:02:33.211Z,9.32
2022-12-08T19:05:01.378Z,9.93
2022-12-08T19:07:29.217Z,8.68
2022-12-08T19:10:01.670Z,9.73
2022-12-08T19:12:29.647Z,12.88
2022-12-08T19:14:58.181Z,22.08
2022-12-08T19:17:26.627Z,15.85
2022-12-08T19:19:54.520Z,8.23
2022-12-08T19:22:22.395Z,9.85
2022-12-08T19:24:50.221Z,12.02
2022-12-08T19:27:19.749Z,12.75
2022-12-08T19:29:47.608Z,8.13
2022-12-08T19:32:15.579Z,6.22
2022-12-08T19:34:43.449Z,11.18
2022-12-08T19:37:12.647Z,16.38
2022-12-08T19:39:58.762Z,11.73
2022-12-08T19:42:45.674Z,14.30
2022-12-08T19:45:17.073Z,13.45
2022-12-08T19:47:45.233Z,13.40
2022-12-08T19:50:33.115Z,12.85
2022-12-08T19:53:01.685Z,11.88
2022-12-08T19:55:29.839Z,11.02
2022-12-08T19:57:59.823Z,9.85
2022-12-08T20:00:28.018Z,10.98
2022-12-08T20:02:56.034Z,19.00
2022-12-08T20:05:24.930Z,12.60
2022-12-08T20:07:55.797Z,9.98
2022-12-08T20:10:25.643Z,11.15
2022-12-08T20:13:13.479Z,11.00
2022-12-08T20:15:43.989Z,8.82
2022-12-08T20:18:12.371Z,8.85
2022-12-08T20:20:41.089Z,9.70
2022-12-08T20:23:09.325Z,9.20
2022-12-08T20:25:39.089Z,11.45
2022-12-08T20:30:39.318Z,7.45
2022-12-08T20:33:08.966Z,10.65
2022-12-08T20:35:36.798Z,9.93
2022-12-08T20:38:04.681Z,7.35
2022-12-08T20:40:32.555Z,8.60
2022-12-08T20:43:00.652Z,8.38
2022-12-08T20:45:28.795Z,6.30
2022-12-08T20:47:56.621Z,10.80
2022-12-08T20:50:26.592Z,11.15
2022-12-08T20:52:55.366Z,11.27
2022-12-08T20:55:23.390Z,16.60
2022-12-08T20:57:51.501Z,12.60
2022-12-08T21:00:21.227Z,8.75
2022-12-08T21:05:26.033Z,9.32
2022-12-08T21:07:54.078Z,9.50
2022-12-08T21:10:22.184Z,7.47
2022-12-08T21:12:50.132Z,10.05
2022-12-08T21:15:18.050Z,13.73
2022-12-08T21:17:46.079Z,11.00
2022-12-08T21:20:14.527Z,8.82
2022-12-08T21:22:44.066Z,8.13
2022-12-08T21:25:12.344Z,11.20
2022-12-08T21:27:40.959Z,10.25
2022-12-08T21:30:11.350Z,8.70
2022-12-08T21:32:40.357Z,10.32
2022-12-08T21:35:09.690Z,14.77
2022-12-08T21:37:38.006Z,14.40
2022-12-08T21:40:08.967Z,10.10
2022-12-08T21:42:46.265Z,12.20
2022-12-08T21:45:16.455Z,9.68
2022-12-08T21:47:47.146Z,12.43
2022-12-08T21:50:16.229Z,14.98
2022-12-08T21:52:47.212Z,12.93
2022-12-08T21:55:20.723Z,13.60
2022-12-08T21:57:48.843Z,21.00
2022-12-08T22:00:18.534Z,14.93
2022-12-08T22:02:47.678Z,18.08
2022-12-08T22:05:15.785Z,16.40
2022-12-08T22:07:43.937Z,14.65
2022-12-08T22:10:12.306Z,14.82
2022-12-08T22:12:41.785Z,12.73
2022-12-08T22:15:11.973Z,15.07
2022-12-08T22:17:42.221Z,12.70
2022-12-08T22:20:12.898Z,12.32
2022-12-08T22:22:41.040Z,12.68
2022-12-08T22:25:12.038Z,9.88
2022-12-08T22:27:42.134Z,16.92
2022-12-08T22:32:23.541Z,12.38
2022-12-08T22:34:51.532Z,11.80
2022-12-08T22:37:19.468Z,11.35
2022-12-08T22:39:47.430Z,11.25
2022-12-08T22:42:16.057Z,11.60
2022-12-08T22:44:43.991Z,12.45
2022-12-08T22:47:12.157Z,9.85
2022-12-08T22:49:41.437Z,11.63
2022-12-08T22:52:09.812Z,10.32
2022-12-08T22:54:37.936Z,8.55
2022-12-08T22:57:05.820Z,11.80
2022-12-08T22:59:37.592Z,9.73
2022-12-08T23:02:05.485Z,8.77
2022-12-08T23:04:36.013Z,8.15
2022-12-08T23:07:05.980Z,9.50
2022-12-08T23:09:33.857Z,6.88
2022-12-08T23:12:01.741Z,13.52
2022-12-08T23:14:29.614Z,9.27
2022-12-08T23:16:57.547Z,11.70
2022-12-08T23:19:25.650Z,9.45
2022-12-08T23:21:53.550Z,8.05
2022-12-08T23:24:23.123Z,11.25
2022-12-08T23:26:51.022Z,10.63
2022-12-08T23:29:18.870Z,9.18
2022-12-08T23:31:46.793Z,13.73
2022-12-08T23:34:14.993Z,9.80
2022-12-08T23:36:43.304Z,10.07
2022-12-08T23:41:23.026Z,8.23
2022-12-08T23:46:22.157Z,11.25
2022-12-08T23:48:50.766Z,14.30
2022-12-08T23:51:19.194Z,9.88
2022-12-08T23:53:47.711Z,12.18
2022-12-08T23:56:18.024Z,8.00
2022-12-08T23:58:47.763Z,7.65
